Main page
METAR-TAF:

METAR-TAF

Airports :

Culdrose, England

RNAS Culdrose (HMS Seahawk)

latitude: 50-05N, longitude: 005-15W, elevation: 78 m

Current weather observation

The report was made 53 minutes ago, at 17:50 UTC
Wind 21 kt from the East
Temperature 9°C
Humidity 87%
Pressure 1018 hPa
Visibility: 9000 m

METAR: EGDR 261750Z AUTO 08021KT 9000 // FEW010/// BKN050/// BKN070/// 09/07 Q1018

Time: 19:43 (18:43 UTC)

Forecast

The report was made 7 hours and 41 minutes ago, at 11:02 UTC
Forecast valid from 26 at 12 UTC to 26 at 21 UTC
Wind 25 kt from the East/Northeast with gusts up to 35 kt
Visibility 10 km or more
Few clouds at a height of 3500 ft
Temporary
from 26 at 12 UTC to 26 at 18 UTC
Wind 30 kt from the East with gusts up to 40 kt
Becoming
from 26 at 17 UTC to 26 at 20 UTC
Wind 15 kt from the East/Northeast with gusts up to 25 kt

TAF: EGDR 261102Z 2612/2621 07025G35KT 9999 FEW035 TEMPO 2612/2618 09030G40KT BECMG 2617/2620 07015G25KT

Weather observations and forecasts of more than 4000 airports (METAR and TAF reports).

The available stations are represented by yellow and red dots on the map.

Hover mouse over dot to see the name of the station.

Then click to see weather observations and forecasts.

To change the map : click on the green buttons with a black cross to zoom in, on the green button with a dash to zoom out, or on the green arrows for adjacent maps.


METAR-TAF: